Airport View

Enter AWOS ICAO identifier for current METAR.

ex. KFNL

KHDE 100315Z AUTO 10006KT 10SM CLR 23/21 A3001 RMK AO2 T02300205

10 Jul 2020 03:26

Frequency: 121.325

Phone: 308-995-6433

Other Area AWOS: KEAR - KLXN - KHSI - KNRN

TAF KGRI 092338Z 1000/1024 06005KT P6SM FEW250